Japan Airlines Virtual Airport Information Service

St. Petersburg Pulkovo Airport

ICAO: ULLI Country: Russia
Latitude: 59.8003 Longitude: 30.2625
Latest Arrival : AFL022 (UUEE-ULLI) Latest Departure : AFL7168 (ULLI-UMKK)


WX CaptureLIVE
Data provided by noaa.gov | Fetched at 13:46:31

METAR : ULLI 061330Z 31004MPS 9999 SCT033 20/13 Q1023 R28L/090060 NOSIG

TAF : ULLI 061058Z 0612/0712 31003MPS 9999 SCT025 BECMG 0618/0620 21003MPS TEMPO 0621/0704 3100 MIFG BR SCT010 BECMG 0710/0712 28003MPS


Runway Data for ULLI
Data provided by openaviationdata.com

Runway ID Mag Var Hdg Length Elevation Surface ILS Freq ILS Id ILS Slope
10L 7 99° 10843 ft 79 ft Concrete 110.5 IPU 2
10R 7 99° 12487 ft 79 ft Concrete 111.9 IPK 3
28L 7 279° 12487 ft 79 ft Concrete 108.9 IPO 2
28R 7 279° 10843 ft 79 ft Concrete 111.3 IPL 2

St. Petersburg Pulkovo Airport, Russia
Use only for reference purposes



Not for navigational purposes.